Arlington, SD

12:56 AM CDT on October 23, 2014 (GMT -0500)
Arlington, SD | Change Station
CLOSE
Current Station
Personal Weather Station
Location: Arlington, SD
Elevation: 1808 ft
Nearby Weather Stations

Elev 1808 ft 44.38 °N, 97.08 °W | Updated 7 seconds ago

Mostly Cloudy
Mostly Cloudy
47.2 °F
Feels Like 45 °F
N
5.0
Wind Variable Wind from WSW
Gusts 6.0 mph

Today
High -- | Low -- °F
--% Chance of Precip.
Yesterday
High -- | Low -- °F
Precip. -- in
7:53 AM 6:31 PM
Waning Crescent, 0% visible
Pressure 30.01 in
Visibility 0.2 miles
Clouds Overcast 200 ft
Windchill 45 °F
Dew Point 46 °F
Humidity 97%
Rainfall 0.00 in
Snow Depth Not available.
UV 0.0 out of 12
Pollen 1.70 out of 12
Air Quality Not available.
Flu Activity Sporadic
METAR KMDS 230535Z AUTO 21007KT 1/4SM FG OVC002 09/09 A3001 RMK AO2

More Conditions Fewer Conditions

Pressure 30.01 in
Visibility 0.2 miles
Clouds Overcast 200 ft
Windchill 45 °F
Dew Point 46 °F
Humidity 97%
Rainfall 0.00 in
Snow Depth Not available.
UV 0.0 out of 12
Pollen 1.70 out of 12
Air Quality Not available.
Flu Activity Sporadic
METAR KMDS 230535Z AUTO 21007KT 1/4SM FG OVC002 09/09 A3001 RMK AO2

More Conditions Fewer Conditions

10-Day Weather Forecast

Almanac

Astronomy

Oct. 23, 2014 Rise Set
Actual Time 7:53 AM CDT 6:31 PM CDT
Civil Twilight 7:24 AM CDT 7:00 PM CDT
Nautical Twilight 6:50 AM CDT 7:34 PM CDT
Astronomical Twilight 6:16 AM CDT 8:08 PM CDT
Moon 7:33 AM CDT 6:33 PM CDT
Length of Visible Light 11h 36m
Length of Day
10h 37m
Tomorrow will be 2m 52s shorter.
Waning Crescent, 0% of the Moon is Illuminated
Today
Waning Crescent
Oct 23
New
Oct 30
First Quarter
Nov 6
Full
Nov 14
Last Quarter

Today's Extremes

State Highs State Lows

Community

WunderPhotos

Upload Photos

1,764,188 photos uploaded!

Nearby

Snow Depth

Station Depth Elevation
North Rapid Creek 1 in 6130 ft
Blind Park 0 in 6890 ft

Earthquake Activity

City Distance Mag. Time & Date
No recent earthquake activity has been reported nearby.
Minimum magnitude displayed is 2.5.

Coastal Water Temperatures

Place Temperature
No Stations Reporting

Nearby Weather Stations